Time;durP1;ratioP1;P1;durP2;ratioP2;P2;SDS_P1;SDS_P2;PMS_P1;PMS_P2;Temp;Humidity;BMP_temperature;BMP_pressure;BME280_temperature;BME280_humidity;BME280_pressure;Samples;Min_cycle;Max_cycle;Signal;HPM_P1;HPM_P2
2022/09/02 00:00:34;;;;;;;;;;;;;;;8.73;100.00;100954.31;3058661;19;995;-46
2022/09/02 00:01:38;;;;;;;;;;;;;;;8.72;100.00;100947.28;3058691;19;903;-49
2022/09/02 00:02:42;;;;;;;;;;;;;;;8.70;100.00;100943.81;3058469;19;1609;-47
2022/09/02 00:03:45;;;;;;;;;;;;;;;8.70;100.00;100951.78;3058805;19;1023;-48
2022/09/02 00:04:50;;;;;;;;;;;;;;;8.68;100.00;100947.50;3057907;19;1907;-47
2022/09/02 00:05:52;;;;;;;;;;;;;;;8.67;100.00;100949.31;3058579;19;908;-49
2022/09/02 00:06:56;;;;;;;;;;;;;;;8.65;100.00;100940.53;3058425;19;1027;-47
2022/09/02 00:07:58;;;;;;;;;;;;;;;8.63;100.00;100937.06;3058580;19;1361;-47
2022/09/02 00:09:02;;;;;;;;;;;;;;;8.62;100.00;100946.84;3058710;19;907;-48
2022/09/02 00:10:04;;;;;;;;;;;;;;;8.59;100.00;100941.66;3058588;19;959;-48
2022/09/02 00:11:09;;;;;;;;;;;;;;;8.58;100.00;100939.91;3058253;19;1642;-49
2022/09/02 00:12:14;;;;;;;;;;;;;;;8.58;100.00;100941.72;3058822;19;1437;-47
2022/09/02 00:13:18;;;;;;;;;;;;;;;8.56;100.00;100946.28;3059696;19;869;-47
2022/09/02 00:14:32;;;;;;;;;;;;;;;8.53;100.00;100947.28;3058606;19;881;-50
2022/09/02 00:15:34;;;;;;;;;;;;;;;8.52;100.00;100939.34;3058302;19;1145;-48
2022/09/02 00:16:38;;;;;;;;;;;;;;;8.51;100.00;100937.63;3058777;19;1576;-49
2022/09/02 00:17:43;;;;;;;;;;;;;;;8.50;100.00;100941.22;3058401;19;992;-49
2022/09/02 00:18:47;;;;;;;;;;;;;;;8.49;100.00;100944.81;3058682;19;1023;-50
2022/09/02 00:19:53;;;;;;;;;;;;;;;8.46;100.00;100942.28;3058503;19;880;-48
2022/09/02 00:20:56;;;;;;;;;;;;;;;8.45;100.00;100944.06;3058604;19;1877;-49
2022/09/02 00:22:02;;;;;;;;;;;;;;;8.44;100.00;100942.38;3058347;19;1171;-47
2022/09/02 00:23:04;;;;;;;;;;;;;;;8.44;100.00;100941.50;3058414;19;952;-49
2022/09/02 00:24:09;;;;;;;;;;;;;;;8.43;100.00;100939.78;3058418;19;885;-50
2022/09/02 00:25:11;;;;;;;;;;;;;;;8.43;100.00;100939.78;3057353;19;1852;-47
2022/09/02 00:26:16;;;;;;;;;;;;;;;8.42;100.00;100940.72;3058151;19;1675;-50
2022/09/02 00:27:17;;;;;;;;;;;;;;;8.42;100.00;100935.41;3058595;19;1023;-49
2022/09/02 00:28:22;;;;;;;;;;;;;;;8.42;100.00;100933.59;3059967;19;1018;-49
2022/09/02 00:29:25;;;;;;;;;;;;;;;8.43;100.00;100929.16;3058616;19;960;-47
2022/09/02 00:30:29;;;;;;;;;;;;;;;8.42;100.00;100924.75;3058132;19;1563;-48
2022/09/02 00:31:32;;;;;;;;;;;;;;;8.43;100.00;100934.47;3058458;19;980;-50
2022/09/02 00:32:37;;;;;;;;;;;;;;;8.44;100.00;100930.88;3058236;19;904;-50
2022/09/02 00:33:39;;;;;;;;;;;;;;;8.45;100.00;100927.28;3057691;19;1105;-49
2022/09/02 00:34:43;;;;;;;;;;;;;;;8.45;100.00;100927.28;3057265;19;1690;-49
2022/09/02 00:35:45;;;;;;;;;;;;;;;8.44;100.00;100922.91;3057989;19;905;-49
2022/09/02 00:36:49;;;;;;;;;;;;;;;8.44;100.00;100918.44;3058040;19;957;-47
2022/09/02 00:37:52;;;;;;;;;;;;;;;8.45;100.00;100927.28;3057392;19;1000;-47
2022/09/02 00:38:56;;;;;;;;;;;;;;;8.47;100.00;100920.06;3056888;19;992;-46
2022/09/02 00:39:58;;;;;;;;;;;;;;;8.47;100.00;100920.06;3058399;19;1147;-50
2022/09/02 00:41:04;;;;;;;;;;;;;;;8.47;100.00;100920.94;3057145;19;1042;-50
2022/09/02 00:42:09;;;;;;;;;;;;;;;8.47;100.00;100925.38;3057609;19;1012;-49
2022/09/02 00:43:10;;;;;;;;;;;;;;;8.46;100.00;100915.69;3058268;19;961;-50
2022/09/02 00:44:17;;;;;;;;;;;;;;;8.45;100.00;100927.28;3058102;19;1813;-49
2022/09/02 00:45:19;;;;;;;;;;;;;;;8.43;100.00;100919.38;3057637;19;1860;-47
2022/09/02 00:46:24;;;;;;;;;;;;;;;8.41;100.00;100920.38;3058000;19;1671;-49
2022/09/02 00:47:28;;;;;;;;;;;;;;;8.40;100.00;100918.63;3058365;19;952;-47
2022/09/02 00:48:33;;;;;;;;;;;;;;;8.38;100.00;100920.50;3058311;19;964;-49
2022/09/02 00:49:35;;;;;;;;;;;;;;;8.36;100.00;100920.56;3058495;19;877;-49
2022/09/02 00:50:40;;;;;;;;;;;;;;;8.36;100.00;100917.03;3056661;19;952;-48
2022/09/02 00:51:46;;;;;;;;;;;;;;;8.37;100.00;100924.09;3057451;19;889;-48
2022/09/02 00:52:52;;;;;;;;;;;;;;;8.36;100.00;100931.19;3056953;19;1047;-49
2022/09/02 00:53:54;;;;;;;;;;;;;;;8.36;100.00;100925.03;3056582;19;1331;-47
2022/09/02 00:55:19;;;;;;;;;;;;;;;8.35;100.00;100923.28;3053743;19;992;-47
2022/09/02 00:56:25;;;;;;;;;;;;;;;8.36;100.00;100919.69;3055468;19;1031;-48
2022/09/02 00:57:35;;;;;;;;;;;;;;;8.34;100.00;100919.75;3056605;19;1010;-49
2022/09/02 00:58:37;;;;;;;;;;;;;;;8.36;100.00;100922.38;3057362;19;889;-47
2022/09/02 00:59:45;;;;;;;;;;;;;;;8.36;100.00;100922.38;3057064;19;975;-48
2022/09/02 01:00:48;;;;;;;;;;;;;;;8.36;100.00;100917.03;3057352;19;1024;-48
2022/09/02 01:01:52;;;;;;;;;;;;;;;8.33;100.00;100917.22;3056940;19;969;-47
2022/09/02 01:02:59;;;;;;;;;;;;;;;8.34;100.00;100919.75;3057262;19;1008;-50
2022/09/02 01:04:04;;;;;;;;;;;;;;;8.35;100.00;100912.66;3057171;19;977;-48
2022/09/02 01:05:08;;;;;;;;;;;;;;;8.35;100.00;100920.63;3056861;19;1854;-50
2022/09/02 01:06:14;;;;;;;;;;;;;;;8.34;100.00;100918.91;3058170;19;1170;-49
2022/09/02 01:07:17;;;;;;;;;;;;;;;8.34;100.00;100918.91;3057251;19;840;-49
2022/09/02 01:08:23;;;;;;;;;;;;;;;8.30;100.00;100916.38;3056813;19;969;-47
2022/09/02 01:09:26;;;;;;;;;;;;;;;8.29;100.00;100919.97;3056699;19;1103;-49
2022/09/02 01:10:33;;;;;;;;;;;;;;;8.26;100.00;100914.78;3057064;19;861;-49
2022/09/02 01:11:37;;;;;;;;;;;;;;;8.26;100.00;100914.78;3056766;19;851;-49
2022/09/02 01:12:42;;;;;;;;;;;;;;;8.23;100.00;100917.56;3057078;19;1317;-47
2022/09/02 01:13:44;;;;;;;;;;;;;;;8.22;100.00;100918.50;3056787;19;956;-47
2022/09/02 01:14:49;;;;;;;;;;;;;;;8.21;100.00;100924.75;3057351;19;1000;-50
2022/09/02 01:15:52;;;;;;;;;;;;;;;8.22;100.00;100918.50;3056890;19;810;-47
2022/09/02 01:16:58;;;;;;;;;;;;;;;8.22;100.00;100921.16;3058052;19;897;-49
2022/09/02 01:18:00;;;;;;;;;;;;;;;8.23;100.00;100922.88;3057860;19;1323;-49
2022/09/02 01:19:06;;;;;;;;;;;;;;;8.24;100.00;100918.44;3056360;19;1643;-50
2022/09/02 01:20:10;;;;;;;;;;;;;;;8.27;100.00;100919.16;3056620;19;1342;-47
2022/09/02 01:21:15;;;;;;;;;;;;;;;8.28;100.00;100918.22;3057190;19;975;-50
2022/09/02 01:22:21;;;;;;;;;;;;;;;8.29;100.00;100906.66;3056398;19;908;-49
2022/09/02 01:23:26;;;;;;;;;;;;;;;8.32;100.00;100915.47;3057190;19;944;-50
2022/09/02 01:24:29;;;;;;;;;;;;;;;8.30;100.00;100911.06;3056545;19;948;-49
2022/09/02 01:25:34;;;;;;;;;;;;;;;8.32;100.00;100910.16;3057125;19;1826;-47
2022/09/02 01:26:36;;;;;;;;;;;;;;;8.30;100.00;100905.72;3056581;19;1319;-49
2022/09/02 01:27:41;;;;;;;;;;;;;;;8.32;100.00;100902.19;3057175;19;897;-47
2022/09/02 01:28:44;;;;;;;;;;;;;;;8.30;100.00;100910.19;3056573;19;1423;-50
2022/09/02 01:29:53;;;;;;;;;;;;;;;8.30;100.00;100907.53;3056833;19;937;-48
2022/09/02 01:30:55;;;;;;;;;;;;;;;8.29;100.00;100911.13;3057611;19;866;-47
2022/09/02 01:31:59;;;;;;;;;;;;;;;8.29;100.00;100911.13;3057658;19;1047;-49
2022/09/02 01:33:01;;;;;;;;;;;;;;;8.29;100.00;100906.66;3057644;19;1270;-49
2022/09/02 01:34:06;;;;;;;;;;;;;;;8.31;100.00;100909.25;3057426;19;1694;-49
2022/09/02 01:35:10;;;;;;;;;;;;;;;8.32;100.00;100910.16;3056451;19;943;-51
2022/09/02 01:36:15;;;;;;;;;;;;;;;8.33;100.00;100907.44;3056679;19;968;-47
2022/09/02 01:37:17;;;;;;;;;;;;;;;8.35;100.00;100910.00;3056155;19;1194;-48
2022/09/02 01:38:22;;;;;;;;;;;;;;;8.33;100.00;100902.13;3056854;19;877;-48
2022/09/02 01:39:23;;;;;;;;;;;;;;;8.35;100.00;100902.00;3056680;19;1553;-49
2022/09/02 01:40:28;;;;;;;;;;;;;;;8.34;100.00;100903.81;3059086;19;948;-47
2022/09/02 01:41:30;;;;;;;;;;;;;;;8.34;100.00;100908.25;3056666;19;861;-50
2022/09/02 01:42:35;;;;;;;;;;;;;;;8.32;100.00;100912.81;3056792;19;944;-47
2022/09/02 01:43:37;;;;;;;;;;;;;;;8.28;100.00;100910.25;3056523;19;961;-48
2022/09/02 01:44:42;;;;;;;;;;;;;;;8.26;100.00;100916.56;3056893;19;908;-49
2022/09/02 01:45:46;;;;;;;;;;;;;;;8.24;100.00;100913.09;3056006;19;1867;-47
2022/09/02 01:46:51;;;;;;;;;;;;;;;8.20;100.00;100917.72;3056824;19;1233;-48
2022/09/02 01:47:53;;;;;;;;;;;;;;;8.18;100.00;100914.25;3056808;19;995;-49
2022/09/02 01:48:57;;;;;;;;;;;;;;;8.15;100.00;100914.41;3056438;19;996;-49
2022/09/02 01:50:03;;;;;;;;;;;;;;;8.15;100.00;100919.72;3056301;19;972;-47
2022/09/02 01:51:08;;;;;;;;;;;;;;;8.10;100.00;100905.75;3056401;19;1017;-49
2022/09/02 01:52:10;;;;;;;;;;;;;;;8.09;100.00;100914.66;3056435;19;928;-49
2022/09/02 01:53:14;;;;;;;;;;;;;;;8.06;100.00;100914.81;3055735;19;1824;-48
2022/09/02 01:54:16;;;;;;;;;;;;;;;8.04;100.00;100918.47;3056511;19;1239;-50
2022/09/02 01:55:21;;;;;;;;;;;;;;;8.01;100.00;100916.78;3058511;19;2144;-49
2022/09/02 01:56:24;;;;;;;;;;;;;;;7.99;100.00;100913.34;3056446;19;985;-49
2022/09/02 01:57:29;;;;;;;;;;;;;;;7.97;100.00;100915.19;3056087;19;1022;-49
2022/09/02 01:58:31;;;;;;;;;;;;;;;7.96;100.00;100913.50;3056788;19;845;-47
2022/09/02 01:59:35;;;;;;;;;;;;;;;7.92;100.00;100917.22;3056414;19;794;-47
2022/09/02 02:00:37;;;;;;;;;;;;;;;7.91;100.00;100920.78;3056864;19;1060;-46
2022/09/02 02:01:42;;;;;;;;;;;;;;;7.89;100.00;100920.00;3056955;19;884;-49
2022/09/02 02:02:44;;;;;;;;;;;;;;;7.87;100.00;100920.06;3056300;19;1171;-47
2022/09/02 02:03:48;;;;;;;;;;;;;;;7.84;100.00;100919.34;3055912;19;1715;-50
2022/09/02 02:04:54;;;;;;;;;;;;;;;7.81;100.00;100923.00;3056383;19;905;-49
2022/09/02 02:05:59;;;;;;;;;;;;;;;7.80;100.00;100923.06;3055444;19;1852;-49
2022/09/02 02:07:02;;;;;;;;;;;;;;;7.77;100.00;100917.88;3056431;19;671;-49
2022/09/02 02:08:07;;;;;;;;;;;;;;;7.74;100.00;100928.63;3055250;19;919;-49
2022/09/02 02:09:09;;;;;;;;;;;;;;;7.72;100.00;100931.38;3056177;19;872;-50
2022/09/02 02:10:15;;;;;;;;;;;;;;;7.70;100.00;100932.34;3056002;19;920;-48
2022/09/02 02:11:19;;;;;;;;;;;;;;;7.66;100.00;100930.75;3056440;19;991;-49
2022/09/02 02:12:26;;;;;;;;;;;;;;;7.63;100.00;100936.19;3056425;19;885;-48
2022/09/02 02:13:28;;;;;;;;;;;;;;;7.61;100.00;100946.03;3055841;19;1071;-48
2022/09/02 02:14:33;;;;;;;;;;;;;;;7.58;100.00;100944.38;3055887;19;1023;-50
2022/09/02 02:15:38;;;;;;;;;;;;;;;7.55;100.00;100942.69;3057735;19;961;-49
2022/09/02 02:16:43;;;;;;;;;;;;;;;7.53;100.00;100941.88;3056061;19;1032;-50
2022/09/02 02:17:46;;;;;;;;;;;;;;;7.51;100.00;100943.75;3056214;19;981;-47
2022/09/02 02:18:50;;;;;;;;;;;;;;;7.48;100.00;100935.94;3056164;19;924;-47
2022/09/02 02:19:53;;;;;;;;;;;;;;;7.48;100.00;100938.59;3056087;19;972;-47
2022/09/02 02:20:58;;;;;;;;;;;;;;;7.47;100.00;100942.16;3055604;19;960;-46
2022/09/02 02:22:00;;;;;;;;;;;;;;;7.44;100.00;100934.31;3057140;19;1112;-49
2022/09/02 02:23:05;;;;;;;;;;;;;;;7.45;100.00;100930.72;3056110;19;1633;-48
2022/09/02 02:24:07;;;;;;;;;;;;;;;7.45;100.00;100927.22;3056885;19;1051;-49
2022/09/02 02:25:13;;;;;;;;;;;;;;;7.45;100.00;100933.38;3056882;19;869;-47
2022/09/02 02:26:16;;;;;;;;;;;;;;;7.45;100.00;100922.78;3055935;19;1864;-50
2022/09/02 02:27:20;;;;;;;;;;;;;;;7.47;100.00;100925.38;3055985;19;893;-48
2022/09/02 02:28:22;;;;;;;;;;;;;;;7.48;100.00;100924.44;3055993;19;1051;-50
2022/09/02 02:29:27;;;;;;;;;;;;;;;7.48;100.00;100917.34;3055694;19;989;-47
2022/09/02 02:30:29;;;;;;;;;;;;;;;7.50;100.00;100920.75;3056162;19;981;-50
2022/09/02 02:31:35;;;;;;;;;;;;;;;7.50;100.00;100915.44;3055737;19;1035;-48
2022/09/02 02:32:37;;;;;;;;;;;;;;;7.52;100.00;100918.91;3055597;19;944;-49
2022/09/02 02:33:42;;;;;;;;;;;;;;;7.53;100.00;100915.34;3055867;19;996;-48
2022/09/02 02:34:45;;;;;;;;;;;;;;;7.52;100.00;100916.25;3055912;19;1029;-49
2022/09/02 02:35:50;;;;;;;;;;;;;;;7.51;100.00;100911.88;3056299;19;917;-50
2022/09/02 02:36:56;;;;;;;;;;;;;;;7.50;100.00;100918.09;3055745;19;1762;-49
2022/09/02 02:38:00;;;;;;;;;;;;;;;7.49;100.00;100912.84;3055467;19;846;-49
2022/09/02 02:39:05;;;;;;;;;;;;;;;7.47;100.00;100918.25;3055768;19;1273;-49
2022/09/02 02:40:11;;;;;;;;;;;;;;;7.45;100.00;100916.59;3055942;19;911;-49
2022/09/02 02:41:13;;;;;;;;;;;;;;;7.43;100.00;100914.00;3056505;19;900;-47
2022/09/02 02:42:19;;;;;;;;;;;;;;;7.39;100.00;100911.53;3056156;19;830;-46
2022/09/02 02:43:20;;;;;;;;;;;;;;;7.37;100.00;100919.53;3055795;19;1160;-49
2022/09/02 02:44:26;;;;;;;;;;;;;;;7.33;100.00;100910.00;3055742;19;878;-49
2022/09/02 02:45:31;;;;;;;;;;;;;;;7.30;100.00;100912.78;3055688;19;1095;-47
2022/09/02 02:46:34;;;;;;;;;;;;;;;7.28;100.00;100913.75;3055508;19;1893;-48
2022/09/02 02:47:40;;;;;;;;;;;;;;;7.26;100.00;100913.81;3055714;19;981;-49
2022/09/02 02:48:41;;;;;;;;;;;;;;;7.23;100.00;100916.63;3056139;19;862;-49
2022/09/02 02:49:46;;;;;;;;;;;;;;;7.19;100.00;100915.88;3056451;19;901;-47
2022/09/02 02:50:52;;;;;;;;;;;;;;;7.19;100.00;100915.00;3056220;19;944;-50
2022/09/02 02:51:54;;;;;;;;;;;;;;;7.17;100.00;100917.72;3055768;19;892;-48
2022/09/02 02:53:01;;;;;;;;;;;;;;;7.15;100.00;100913.41;3055900;19;980;-48
2022/09/02 02:54:03;;;;;;;;;;;;;;;7.13;100.00;100920.53;3055794;19;881;-50
2022/09/02 02:55:08;;;;;;;;;;;;;;;7.11;100.00;100920.63;3056368;19;1036;-48
2022/09/02 02:56:10;;;;;;;;;;;;;;;7.09;100.00;100906.56;3056551;19;944;-48
2022/09/02 02:57:14;;;;;;;;;;;;;;;7.10;100.00;100915.38;3055663;19;884;-48
2022/09/02 02:58:16;;;;;;;;;;;;;;;7.08;100.00;100915.44;3054496;19;1430;-49
2022/09/02 02:59:21;;;;;;;;;;;;;;;7.09;100.00;100914.53;3055520;19;968;-49
2022/09/02 03:00:24;;;;;;;;;;;;;;;7.07;100.00;100913.72;3055645;19;925;-47
2022/09/02 03:01:29;;;;;;;;;;;;;;;7.06;100.00;100919.09;3055777;19;893;-47
2022/09/02 03:02:32;;;;;;;;;;;;;;;7.05;100.00;100912.03;3055520;19;890;-48
2022/09/02 03:03:37;;;;;;;;;;;;;;;7.04;100.00;100915.63;3055796;19;1659;-47
2022/09/02 03:04:40;;;;;;;;;;;;;;;7.03;100.00;100916.53;3055090;19;1060;-47
2022/09/02 03:05:44;;;;;;;;;;;;;;;7.04;100.00;100912.97;3055799;19;972;-48
2022/09/02 03:06:48;;;;;;;;;;;;;;;7.04;100.00;100912.97;3055151;19;1850;-50
2022/09/02 03:07:52;;;;;;;;;;;;;;;7.03;100.00;100914.75;3055740;19;1096;-47
2022/09/02 03:08:56;;;;;;;;;;;;;;;7.03;100.00;100913.88;3055456;19;968;-49
2022/09/02 03:10:02;;;;;;;;;;;;;;;7.02;100.00;100913.03;3055527;19;992;-47
2022/09/02 03:11:05;;;;;;;;;;;;;;;7.02;100.00;100910.38;3055529;19;853;-47
2022/09/02 03:12:15;;;;;;;;;;;;;;;7.03;100.00;100913.88;3055274;19;1039;-49
2022/09/02 03:13:18;;;;;;;;;;;;;;;7.03;100.00;100913.88;3055379;19;1051;-47
2022/09/02 03:14:23;;;;;;;;;;;;;;;7.02;100.00;100917.47;3055361;19;1832;-48
2022/09/02 03:15:25;;;;;;;;;;;;;;;7.03;100.00;100913.88;3055711;19;1165;-48
2022/09/02 03:16:30;;;;;;;;;;;;;;;7.03;100.00;100913.88;3055458;19;847;-48
2022/09/02 03:17:32;;;;;;;;;;;;;;;7.03;100.00;100913.88;3055596;19;944;-49
2022/09/02 03:18:37;;;;;;;;;;;;;;;7.02;100.00;100907.72;3055025;19;940;-47
2022/09/02 03:19:39;;;;;;;;;;;;;;;7.02;100.00;100912.16;3056097;19;1043;-49
2022/09/02 03:20:43;;;;;;;;;;;;;;;7.02;100.00;100906.84;3059264;19;909;-49
2022/09/02 03:21:46;;;;;;;;;;;;;;;7.03;100.00;100908.59;3058495;19;968;-49
2022/09/02 03:22:50;;;;;;;;;;;;;;;7.04;100.00;100910.31;3057936;19;1207;-49
2022/09/02 03:23:52;;;;;;;;;;;;;;;7.06;100.00;100916.44;3059408;19;1225;-48
2022/09/02 03:24:57;;;;;;;;;;;;;;;7.06;100.00;100908.47;3059139;19;1189;-48
2022/09/02 03:25:59;;;;;;;;;;;;;;;7.06;100.00;100914.63;3059300;19;965;-49
2022/09/02 03:27:09;;;;;;;;;;;;;;;7.07;100.00;100916.38;3057746;19;1853;-50
2022/09/02 03:28:11;;;;;;;;;;;;;;;7.06;100.00;100914.63;3058517;19;707;-48
2022/09/02 03:29:16;;;;;;;;;;;;;;;7.06;100.00;100919.94;3058253;19;1012;-50
2022/09/02 03:30:19;;;;;;;;;;;;;;;7.06;100.00;100919.09;3058488;19;850;-48
2022/09/02 03:31:24;;;;;;;;;;;;;;;7.06;100.00;100924.38;3058001;19;978;-48
2022/09/02 03:32:27;;;;;;;;;;;;;;;7.04;100.00;100918.28;3058731;19;825;-48
2022/09/02 03:33:34;;;;;;;;;;;;;;;7.03;100.00;100935.13;3057911;19;952;-49
2022/09/02 03:34:36;;;;;;;;;;;;;;;7.02;100.00;100928.94;3058275;19;1211;-50
2022/09/02 03:35:42;;;;;;;;;;;;;;;7.02;100.00;100930.72;3057992;19;1139;-48
2022/09/02 03:36:47;;;;;;;;;;;;;;;7.01;100.00;100926.34;3058300;19;1067;-48
2022/09/02 03:37:50;;;;;;;;;;;;;;;6.99;100.00;100925.56;3058138;19;771;-47
2022/09/02 03:38:54;;;;;;;;;;;;;;;6.98;100.00;100931.81;3057990;19;1797;-48
2022/09/02 03:39:56;;;;;;;;;;;;;;;6.98;100.00;100931.81;3058022;19;2200;-50
2022/09/02 03:41:01;;;;;;;;;;;;;;;6.98;100.00;100931.81;3057939;19;1788;-49
2022/09/02 03:42:04;;;;;;;;;;;;;;;6.97;100.00;100936.25;3058979;19;928;-49
2022/09/02 03:43:09;;;;;;;;;;;;;;;6.95;100.00;100939.88;3058465;19;869;-50
2022/09/02 03:44:12;;;;;;;;;;;;;;;6.95;100.00;100945.19;3058002;19;964;-49
2022/09/02 03:45:18;;;;;;;;;;;;;;;6.93;100.00;100944.38;3058340;19;897;-48
2022/09/02 03:46:21;;;;;;;;;;;;;;;6.93;100.00;100939.06;3057702;19;964;-49
2022/09/02 03:47:27;;;;;;;;;;;;;;;6.93;100.00;100939.06;3057427;19;1842;-49
2022/09/02 03:48:30;;;;;;;;;;;;;;;6.89;100.00;100940.97;3057983;19;961;-49
2022/09/02 03:49:35;;;;;;;;;;;;;;;6.93;100.00;100944.38;3058020;19;928;-47
2022/09/02 03:50:38;;;;;;;;;;;;;;;6.94;100.00;100943.44;3058350;19;1425;-50
2022/09/02 03:51:45;;;;;;;;;;;;;;;6.96;100.00;100952.22;3058041;19;1813;-49
2022/09/02 03:52:47;;;;;;;;;;;;;;;6.97;100.00;100944.19;3058005;19;1059;-49
2022/09/02 03:53:52;;;;;;;;;;;;;;;7.00;100.00;100945.88;3058250;19;917;-48
2022/09/02 03:54:54;;;;;;;;;;;;;;;7.01;100.00;100947.56;3058150;19;916;-49
2022/09/02 03:56:00;;;;;;;;;;;;;;;7.04;100.00;100947.47;3057706;19;975;-47
2022/09/02 03:57:03;;;;;;;;;;;;;;;7.08;100.00;100954.38;3057984;19;1028;-47
2022/09/02 03:58:08;;;;;;;;;;;;;;;7.12;100.00;100956.00;3056977;19;1149;-50
2022/09/02 03:59:12;;;;;;;;;;;;;;;7.14;100.00;100948.81;3058218;19;992;-49
2022/09/02 04:00:18;;;;;;;;;;;;;;;7.17;100.00;100946.06;3057632;19;1190;-49
2022/09/02 04:01:22;;;;;;;;;;;;;;;7.20;100.00;100952.09;3058398;19;873;-49
2022/09/02 04:02:27;;;;;;;;;;;;;;;7.22;100.00;100947.59;3057588;19;936;-48
2022/09/02 04:03:29;;;;;;;;;;;;;;;7.24;100.00;100951.03;3057887;19;1104;-48
2022/09/02 04:04:34;;;;;;;;;;;;;;;7.26;100.00;100958.94;3057762;19;854;-51
2022/09/02 04:05:36;;;;;;;;;;;;;;;7.27;100.00;100960.69;3057940;19;1015;-50
2022/09/02 04:06:40;;;;;;;;;;;;;;;7.29;100.00;100961.47;3057767;19;825;-50
2022/09/02 04:07:43;;;;;;;;;;;;;;;7.29;100.00;100958.81;3057386;19;1860;-48
2022/09/02 04:08:51;;;;;;;;;;;;;;;7.31;100.00;100962.28;3057668;19;928;-49
2022/09/02 04:09:55;;;;;;;;;;;;;;;7.33;100.00;100960.44;3057909;19;980;-49
2022/09/02 04:10:59;;;;;;;;;;;;;;;7.36;100.00;100960.31;3057942;19;861;-47
2022/09/02 04:12:02;;;;;;;;;;;;;;;7.39;100.00;100960.19;3058785;19;1974;-47
2022/09/02 04:13:08;;;;;;;;;;;;;;;7.57;100.00;100967.41;3057624;19;900;-49
2022/09/02 04:14:10;;;;;;;;;;;;;;;8.28;100.00;100965.22;3057207;19;928;-50
2022/09/02 04:15:15;;;;;;;;;;;;;;;9.17;100.00;100972.66;3056949;19;1241;-47
2022/09/02 04:16:27;;;;;;;;;;;;;;;9.90;100.00;100983.19;3058552;19;1563;-49
2022/09/02 04:17:39;;;;;;;;;;;;;;;10.58;100.00;101007.25;3059017;19;2044;-49
2022/09/02 04:18:42;;;;;;;;;;;;;;;11.09;100.00;101025.81;3057658;19;1229;-48
2022/09/02 04:19:47;;;;;;;;;;;;;;;11.51;100.00;101038.56;3057359;19;1949;-50
2022/09/02 04:20:50;;;;;;;;;;;;;;;11.88;100.00;101057.88;3058574;19;1448;-48
2022/09/02 04:21:56;;;;;;;;;;;;;;;12.17;100.00;101074.91;3056450;19;925;-49
2022/09/02 04:22:59;;;;;;;;;;;;;;;12.41;100.00;101089.53;3056957;19;881;-46
2022/09/02 04:24:03;;;;;;;;;;;;;;;12.57;100.00;101097.47;3056231;19;1055;-49
2022/09/02 04:25:06;;;;;;;;;;;;;;;12.73;100.00;101118.84;3056692;19;996;-47
2022/09/02 04:26:12;;;;;;;;;;;;;;;12.85;100.00;101115.44;3056333;19;976;-49
2022/09/02 04:27:14;;;;;;;;;;;;;;;12.93;100.00;101130.06;3056599;19;928;-48
2022/09/02 04:28:21;;;;;;;;;;;;;;;13.00;100.00;101130.56;3056121;19;1855;-49
2022/09/02 04:29:26;;;;;;;;;;;;;;;12.98;100.00;101137.84;3056476;19;924;-48
2022/09/02 04:30:27;;;;;;;;;;;;;;;12.88;100.00;101139.34;3055976;19;1260;-50
2022/09/02 04:31:32;;;;;;;;;;;;;;;12.69;100.00;101141.41;3055590;19;1670;-47
2022/09/02 04:32:34;;;;;;;;;;;;;;;12.37;100.00;101136.16;3057550;19;869;-49
2022/09/02 04:33:44;;;;;;;;;;;;;;;11.94;100.00;101143.13;3056127;19;1020;-50
2022/09/02 04:34:48;;;;;;;;;;;;;;;11.48;100.00;101131.41;3056726;19;914;-48
2022/09/02 04:35:54;;;;;;;;;;;;;;;11.16;100.00;101131.38;3057377;19;2425;-49
2022/09/02 04:36:56;;;;;;;;;;;;;;;10.97;100.00;101127.09;3057296;19;1204;-50
2022/09/02 04:38:01;;;;;;;;;;;;;;;10.83;100.00;101119.81;3057493;19;922;-50
2022/09/02 04:39:04;;;;;;;;;;;;;;;10.74;100.00;101125.66;3057430;19;940;-48
2022/09/02 04:40:11;;;;;;;;;;;;;;;10.66;100.00;101118.00;3020263;19;13088;-49
2022/09/02 04:41:16;;;;;;;;;;;;;;;10.57;100.00;101104.28;3055670;19;1186;-48
2022/09/02 04:42:21;;;;;;;;;;;;;;;10.51;100.00;101113.47;3056652;19;1790;-49
2022/09/02 04:43:23;;;;;;;;;;;;;;;10.43;100.00;101105.84;3058813;19;1797;-49
2022/09/02 04:44:29;;;;;;;;;;;;;;;10.36;100.00;101114.25;3058696;19;1808;-50
2022/09/02 04:45:31;;;;;;;;;;;;;;;10.27;100.00;101104.91;3056971;19;894;-47
2022/09/02 04:46:37;;;;;;;;;;;;;;;10.21;100.00;101105.22;3057315;19;964;-51
2022/09/02 04:47:42;;;;;;;;;;;;;;;10.15;100.00;101105.47;3057257;19;989;-47
2022/09/02 04:48:51;;;;;;;;;;;;;;;10.08;100.00;101099.59;3054775;19;1844;-48
2022/09/02 04:49:54;;;;;;;;;;;;;;;10.03;100.00;101098.09;3056657;19;1023;-51
2022/09/02 04:51:00;;;;;;;;;;;;;;;9.99;100.00;101088.53;3056994;19;1178;-48
2022/09/02 04:52:02;;;;;;;;;;;;;;;9.93;100.00;101088.81;3057161;19;1343;-47
2022/09/02 04:53:09;;;;;;;;;;;;;;;9.89;100.00;101087.25;3055752;19;1466;-50
2022/09/02 04:54:13;;;;;;;;;;;;;;;9.86;100.00;101082.06;3056917;19;1220;-48
2022/09/02 04:55:21;;;;;;;;;;;;;;;9.83;100.00;101084.88;3056700;19;1280;-51
2022/09/02 04:56:25;;;;;;;;;;;;;;;9.81;100.00;101079.63;3056450;19;1259;-48
2022/09/02 04:57:30;;;;;;;;;;;;;;;9.81;100.00;101078.75;3056776;19;1259;-49
2022/09/02 04:58:32;;;;;;;;;;;;;;;9.82;100.00;101069.81;3057008;19;1271;-52
2022/09/02 04:59:37;;;;;;;;;;;;;;;9.83;100.00;101076.88;3056411;19;1275;-49
2022/09/02 05:00:43;;;;;;;;;;;;;;;9.84;100.00;101079.47;3056888;19;1608;-48
2022/09/02 05:01:50;;;;;;;;;;;;;;;9.85;100.00;101067.03;3057009;19;1349;-50
2022/09/02 05:02:57;;;;;;;;;;;;;;;9.88;100.00;101064.22;3056298;19;1295;-48
2022/09/02 05:04:08;;;;;;;;;;;;;;;9.90;100.00;101067.66;3056819;19;1489;-50
2022/09/02 05:05:15;;;;;;;;;;;;;;;9.91;100.00;101069.38;3056369;19;1431;-51
2022/09/02 05:06:21;;;;;;;;;;;;;;;9.92;100.00;101068.44;3056709;19;2031;-51
2022/09/02 05:07:23;;;;;;;;;;;;;;;9.95;100.00;101065.63;3056709;19;1250;-50
2022/09/02 05:08:28;;;;;;;;;;;;;;;9.99;100.00;101064.53;3056551;19;1861;-51
2022/09/02 05:09:30;;;;;;;;;;;;;;;10.03;100.00;101058.09;3057068;19;1419;-48
2022/09/02 05:10:38;;;;;;;;;;;;;;;10.08;100.00;101061.41;3057266;19;1293;-48
2022/09/02 05:11:46;;;;;;;;;;;;;;;10.13;100.00;101063.84;3057156;19;1895;-52
2022/09/02 05:12:53;;;;;;;;;;;;;;;10.16;100.00;101059.19;3057209;19;1044;-49
2022/09/02 05:13:59;;;;;;;;;;;;;;;10.21;100.00;101057.22;3056922;19;1223;-49
2022/09/02 05:15:10;;;;;;;;;;;;;;;10.26;100.00;101060.53;3056835;19;844;-46
2022/09/02 05:16:16;;;;;;;;;;;;;;;10.32;100.00;101057.53;3057692;19;890;-49
2022/09/02 05:17:21;;;;;;;;;;;;;;;10.37;100.00;101060.81;3056196;19;1132;-50
2022/09/02 05:18:24;;;;;;;;;;;;;;;10.41;100.00;101059.69;3056924;19;889;-50
2022/09/02 05:19:29;;;;;;;;;;;;;;;10.45;100.00;101055.94;3057095;19;2096;-50
2022/09/02 05:20:33;;;;;;;;;;;;;;;10.43;100.00;101041.81;3057781;19;1621;-49
2022/09/02 05:21:42;;;;;;;;;;;;;;;10.54;100.00;101059.06;3056723;19;1114;-49
2022/09/02 05:22:49;;;;;;;;;;;;;;;10.58;100.00;101048.16;3057574;19;2120;-48
2022/09/02 05:23:56;;;;;;;;;;;;;;;10.63;100.00;101054.09;3057325;19;1610;-49
2022/09/02 05:24:59;;;;;;;;;;;;;;;10.66;100.00;101053.94;3056705;19;1382;-51
2022/09/02 05:26:09;;;;;;;;;;;;;;;10.70;100.00;101049.31;3057314;19;1558;-50
2022/09/02 05:27:14;;;;;;;;;;;;;;;10.74;100.00;101045.56;3056487;19;1759;-50
2022/09/02 05:28:20;;;;;;;;;;;;;;;10.77;100.00;101048.03;3056896;19;928;-51
2022/09/02 05:29:22;;;;;;;;;;;;;;;10.82;100.00;101048.66;3056775;19;1867;-48
2022/09/02 05:30:28;;;;;;;;;;;;;;;10.86;100.00;101050.25;3057624;19;1067;-46
2022/09/02 05:31:30;;;;;;;;;;;;;;;10.90;100.00;101046.44;3057701;19;1167;-48
2022/09/02 05:32:42;;;;;;;;;;;;;;;10.93;100.00;101043.59;3056516;19;1290;-50
2022/09/02 05:33:45;;;;;;;;;;;;;;;10.98;100.00;101048.72;3056065;19;1222;-49
2022/09/02 05:34:55;;;;;;;;;;;;;;;11.05;100.00;101047.41;3053646;19;1678;-49
2022/09/02 05:35:57;;;;;;;;;;;;;;;11.10;100.00;101048.91;3055290;19;1419;-47
2022/09/02 05:37:01;;;;;;;;;;;;;;;11.16;100.00;101053.03;3057643;19;873;-48